Myrick, Mississippi
Current Conditions -  °F | °C
As of 3:35 AM on Sunday 26 Oct 2014 (Local Time) from KPIB Reporting Station
Clear Clear  
Wind Chill: 55°   Ceiling: Unl
Heat Index: 55°   Visibility: 3mi
Dew Point: 52°   Wind: 0mph
Humidity: 88%   Direction: NA
Pressure: 30.05"   Gusts: NA
Location:  31.6875°N, 89.1116°W
Report Text: KPIB 260835Z AUTO 00000KT 3SM CLR 13/11 A3005 RMK AO1
Loading
Personal Weather Stations






























Interactive Weather Map
Tropical Storm Tracking
New forecast layout! Learn more

10-Day Weather Forecast

Advertisements
Track Severe Weather on mobile